sensor_id;sensor_type;location;lat;lon;timestamp;pressure;altitude;pressure_sealevel;temperature;humidity
10366;BME280;5229;41.820;23.490;2022-07-22T00:02:00;90285.84;;;21.13;44.14
10366;BME280;5229;41.820;23.490;2022-07-22T00:04:27;90281.34;;;21.14;44.22
10366;BME280;5229;41.820;23.490;2022-07-22T00:06:54;90280.94;;;21.12;44.24
10366;BME280;5229;41.820;23.490;2022-07-22T00:09:21;90279.75;;;21.06;44.37
10366;BME280;5229;41.820;23.490;2022-07-22T00:11:49;90280.09;;;21.04;44.79
10366;BME280;5229;41.820;23.490;2022-07-22T00:14:16;90280.06;;;21.01;44.48
10366;BME280;5229;41.820;23.490;2022-07-22T00:16:43;90281.16;;;20.96;44.80
10366;BME280;5229;41.820;23.490;2022-07-22T00:19:10;90293.09;;;20.90;44.65
10366;BME280;5229;41.820;23.490;2022-07-22T00:21:37;90293.81;;;20.87;44.84
10366;BME280;5229;41.820;23.490;2022-07-22T00:24:04;90291.53;;;20.86;44.84
10366;BME280;5229;41.820;23.490;2022-07-22T00:26:31;90289.31;;;20.88;44.93
10366;BME280;5229;41.820;23.490;2022-07-22T00:28:59;90291.94;;;20.88;45.08
10366;BME280;5229;41.820;23.490;2022-07-22T00:31:26;90285.47;;;20.85;45.44
10366;BME280;5229;41.820;23.490;2022-07-22T00:33:53;90285.47;;;20.85;45.37
10366;BME280;5229;41.820;23.490;2022-07-22T00:36:20;90278.69;;;20.84;45.16
10366;BME280;5229;41.820;23.490;2022-07-22T00:38:47;90281.69;;;20.83;45.15
10366;BME280;5229;41.820;23.490;2022-07-22T00:41:14;90288.06;;;20.78;45.02
10366;BME280;5229;41.820;23.490;2022-07-22T00:43:51;90290.53;;;20.68;45.32
10366;BME280;5229;41.820;23.490;2022-07-22T00:46:20;90279.97;;;20.64;45.57
10366;BME280;5229;41.820;23.490;2022-07-22T00:48:46;90288.84;;;20.56;45.52
10366;BME280;5229;41.820;23.490;2022-07-22T00:51:13;90291.09;;;20.54;45.46
10366;BME280;5229;41.820;23.490;2022-07-22T00:53:40;90292.19;;;20.53;45.73
10366;BME280;5229;41.820;23.490;2022-07-22T00:56:07;90296.03;;;20.56;45.95
10366;BME280;5229;41.820;23.490;2022-07-22T00:58:34;90296.84;;;20.60;45.72
10366;BME280;5229;41.820;23.490;2022-07-22T01:01:01;90302.38;;;20.55;45.72
10366;BME280;5229;41.820;23.490;2022-07-22T01:03:30;90294.44;;;20.51;45.79
10366;BME280;5229;41.820;23.490;2022-07-22T01:05:57;90292.09;;;20.46;45.96
10366;BME280;5229;41.820;23.490;2022-07-22T01:08:25;90299.19;;;20.42;46.07
10366;BME280;5229;41.820;23.490;2022-07-22T01:10:52;90296.88;;;20.37;46.30
10366;BME280;5229;41.820;23.490;2022-07-22T01:13:20;90290.38;;;20.31;46.09
10366;BME280;5229;41.820;23.490;2022-07-22T01:15:47;90292.97;;;20.28;46.21
10366;BME280;5229;41.820;23.490;2022-07-22T01:18:14;90295.97;;;20.26;46.33
10366;BME280;5229;41.820;23.490;2022-07-22T01:20:45;90304.56;;;20.23;46.52
10366;BME280;5229;41.820;23.490;2022-07-22T01:23:11;90298.94;;;20.25;46.66
10366;BME280;5229;41.820;23.490;2022-07-22T01:25:38;90294.38;;;20.22;46.67
10366;BME280;5229;41.820;23.490;2022-07-22T01:28:05;90296.25;;;20.21;46.68
10366;BME280;5229;41.820;23.490;2022-07-22T01:30:32;90294.34;;;20.18;46.83
10366;BME280;5229;41.820;23.490;2022-07-22T01:32:59;90295.78;;;20.15;46.60
10366;BME280;5229;41.820;23.490;2022-07-22T01:35:25;90293.84;;;20.12;46.58
10366;BME280;5229;41.820;23.490;2022-07-22T01:37:54;90290.72;;;20.07;46.94
10366;BME280;5229;41.820;23.490;2022-07-22T01:40:21;90294.91;;;20.08;46.91
10366;BME280;5229;41.820;23.490;2022-07-22T01:42:48;90293.38;;;20.07;46.66
10366;BME280;5229;41.820;23.490;2022-07-22T01:45:15;90304.31;;;20.09;46.87
10366;BME280;5229;41.820;23.490;2022-07-22T01:47:42;90297.91;;;20.06;46.77
10366;BME280;5229;41.820;23.490;2022-07-22T01:50:11;90294.09;;;20.04;46.89
10366;BME280;5229;41.820;23.490;2022-07-22T01:52:39;90296.31;;;20.02;47.10
10366;BME280;5229;41.820;23.490;2022-07-22T01:55:08;90300.34;;;19.96;47.13
10366;BME280;5229;41.820;23.490;2022-07-22T01:57:36;90301.78;;;19.90;47.25
10366;BME280;5229;41.820;23.490;2022-07-22T02:00:04;90296.09;;;19.88;47.27
10366;BME280;5229;41.820;23.490;2022-07-22T02:02:32;90296.03;;;19.84;47.39
10366;BME280;5229;41.820;23.490;2022-07-22T02:05:02;90306.84;;;19.79;47.35
10366;BME280;5229;41.820;23.490;2022-07-22T02:07:30;90301.09;;;19.74;47.50
10366;BME280;5229;41.820;23.490;2022-07-22T02:09:57;90293.50;;;19.69;47.49
10366;BME280;5229;41.820;23.490;2022-07-22T02:12:25;90294.94;;;19.66;47.65
10366;BME280;5229;41.820;23.490;2022-07-22T02:14:52;90296.88;;;19.69;47.85
10366;BME280;5229;41.820;23.490;2022-07-22T02:17:18;90294.94;;;19.66;47.65
10366;BME280;5229;41.820;23.490;2022-07-22T02:19:46;90294.22;;;19.66;47.85
10366;BME280;5229;41.820;23.490;2022-07-22T02:22:13;90291.16;;;19.64;47.83
10366;BME280;5229;41.820;23.490;2022-07-22T02:24:40;90296.38;;;19.60;47.83
10366;BME280;5229;41.820;23.490;2022-07-22T02:27:07;90292.56;;;19.58;47.62
10366;BME280;5229;41.820;23.490;2022-07-22T02:29:35;90294.34;;;19.54;48.19
10366;BME280;5229;41.820;23.490;2022-07-22T02:32:02;90292.03;;;19.49;48.33
10366;BME280;5229;41.820;23.490;2022-07-22T02:34:29;90293.84;;;19.45;48.44
10366;BME280;5229;41.820;23.490;2022-07-22T02:36:56;90295.34;;;19.46;48.41
10366;BME280;5229;41.820;23.490;2022-07-22T02:39:23;90287.13;;;19.47;48.35
10366;BME280;5229;41.820;23.490;2022-07-22T02:41:50;90299.16;;;19.48;48.48
10366;BME280;5229;41.820;23.490;2022-07-22T02:44:17;90298.47;;;19.51;48.41
10366;BME280;5229;41.820;23.490;2022-07-22T02:46:45;90297.72;;;19.51;48.34
10366;BME280;5229;41.820;23.490;2022-07-22T02:49:12;90297.00;;;19.54;48.21
10366;BME280;5229;41.820;23.490;2022-07-22T02:51:39;90294.72;;;19.52;48.28
10366;BME280;5229;41.820;23.490;2022-07-22T02:54:05;90293.88;;;19.48;48.50
10366;BME280;5229;41.820;23.490;2022-07-22T02:56:32;90296.16;;;19.50;48.51
10366;BME280;5229;41.820;23.490;2022-07-22T02:58:59;90290.16;;;19.49;48.38
10366;BME280;5229;41.820;23.490;2022-07-22T03:01:26;90292.72;;;19.46;48.46
10366;BME280;5229;41.820;23.490;2022-07-22T03:03:54;90297.63;;;19.47;48.66
10366;BME280;5229;41.820;23.490;2022-07-22T03:06:21;90288.97;;;19.47;48.73
10366;BME280;5229;41.820;23.490;2022-07-22T03:08:51;90289.31;;;19.45;48.71
10366;BME280;5229;41.820;23.490;2022-07-22T03:11:18;90291.56;;;19.43;48.68
10366;BME280;5229;41.820;23.490;2022-07-22T03:13:47;90293.41;;;19.43;48.62
10366;BME280;5229;41.820;23.490;2022-07-22T03:16:14;90299.09;;;19.45;48.83
10366;BME280;5229;41.820;23.490;2022-07-22T03:18:40;90308.50;;;19.46;48.80
10366;BME280;5229;41.820;23.490;2022-07-22T03:21:09;90306.56;;;19.43;49.00
10366;BME280;5229;41.820;23.490;2022-07-22T03:23:36;90299.38;;;19.40;48.91
10366;BME280;5229;41.820;23.490;2022-07-22T03:26:03;90303.53;;;19.41;49.02
10366;BME280;5229;41.820;23.490;2022-07-22T03:28:30;90311.81;;;19.43;48.86
10366;BME280;5229;41.820;23.490;2022-07-22T03:30:56;90309.66;;;19.48;48.89
10366;BME280;5229;41.820;23.490;2022-07-22T03:33:23;90305.59;;;19.51;48.84
10366;BME280;5229;41.820;23.490;2022-07-22T03:35:50;90313.53;;;19.54;48.88
10366;BME280;5229;41.820;23.490;2022-07-22T03:38:18;90307.59;;;19.57;48.82
10366;BME280;5229;41.820;23.490;2022-07-22T03:40:45;90310.69;;;19.63;48.88
10366;BME280;5229;41.820;23.490;2022-07-22T03:43:12;90308.13;;;19.66;48.90
10366;BME280;5229;41.820;23.490;2022-07-22T03:45:39;90314.28;;;19.74;48.85
10366;BME280;5229;41.820;23.490;2022-07-22T03:48:05;90308.00;;;19.82;48.65
10366;BME280;5229;41.820;23.490;2022-07-22T03:50:38;90300.28;;;19.92;48.89
10366;BME280;5229;41.820;23.490;2022-07-22T03:53:05;90307.66;;;20.06;48.46
10366;BME280;5229;41.820;23.490;2022-07-22T03:55:33;90307.50;;;20.18;48.48
10366;BME280;5229;41.820;23.490;2022-07-22T03:58:00;90305.84;;;20.33;48.39
10366;BME280;5229;41.820;23.490;2022-07-22T04:00:27;90300.31;;;20.41;48.33
10366;BME280;5229;41.820;23.490;2022-07-22T04:02:54;90305.34;;;20.50;48.50
10366;BME280;5229;41.820;23.490;2022-07-22T04:05:20;90308.88;;;20.61;48.47
10366;BME280;5229;41.820;23.490;2022-07-22T04:07:47;90312.84;;;20.74;48.10
10366;BME280;5229;41.820;23.490;2022-07-22T04:10:14;90318.69;;;20.90;48.47
10366;BME280;5229;41.820;23.490;2022-07-22T04:12:42;90307.28;;;21.08;48.50
10366;BME280;5229;41.820;23.490;2022-07-22T04:15:09;90309.75;;;21.27;48.29
10366;BME280;5229;41.820;23.490;2022-07-22T04:17:36;90307.28;;;21.41;48.07
10366;BME280;5229;41.820;23.490;2022-07-22T04:20:04;90305.91;;;21.54;47.62
10366;BME280;5229;41.820;23.490;2022-07-22T04:22:31;90310.56;;;21.68;47.07
10366;BME280;5229;41.820;23.490;2022-07-22T04:24:58;90305.09;;;21.80;46.79
10366;BME280;5229;41.820;23.490;2022-07-22T04:27:26;90309.72;;;21.93;46.74
10366;BME280;5229;41.820;23.490;2022-07-22T04:29:54;90304.56;;;22.07;46.24
10366;BME280;5229;41.820;23.490;2022-07-22T04:32:21;90302.06;;;22.21;46.05
10366;BME280;5229;41.820;23.490;2022-07-22T04:34:48;90305.53;;;22.32;46.44
10366;BME280;5229;41.820;23.490;2022-07-22T04:37:17;90309.78;;;22.44;46.47
10366;BME280;5229;41.820;23.490;2022-07-22T04:39:44;90303.13;;;22.60;46.10
10366;BME280;5229;41.820;23.490;2022-07-22T04:42:11;90311.53;;;22.76;46.37
10366;BME280;5229;41.820;23.490;2022-07-22T04:44:38;90315.41;;;22.93;46.26
10366;BME280;5229;41.820;23.490;2022-07-22T04:47:06;90310.19;;;23.11;46.33
10366;BME280;5229;41.820;23.490;2022-07-22T04:49:33;90310.31;;;23.28;46.13
10366;BME280;5229;41.820;23.490;2022-07-22T04:52:00;90308.09;;;23.44;45.48
10366;BME280;5229;41.820;23.490;2022-07-22T04:54:27;90314.22;;;23.59;45.33
10366;BME280;5229;41.820;23.490;2022-07-22T04:56:53;90314.25;;;23.69;45.22
10366;BME280;5229;41.820;23.490;2022-07-22T04:59:20;90308.59;;;23.85;45.04
10366;BME280;5229;41.820;23.490;2022-07-22T05:01:47;90303.00;;;24.04;44.90
10366;BME280;5229;41.820;23.490;2022-07-22T05:04:15;90304.16;;;24.27;44.51
10366;BME280;5229;41.820;23.490;2022-07-22T05:06:42;90313.63;;;24.49;43.86
10366;BME280;5229;41.820;23.490;2022-07-22T05:09:09;90305.31;;;24.72;43.69
10366;BME280;5229;41.820;23.490;2022-07-22T05:11:36;90313.63;;;24.91;44.23
10366;BME280;5229;41.820;23.490;2022-07-22T05:14:02;90310.56;;;25.07;43.78
10366;BME280;5229;41.820;23.490;2022-07-22T05:16:29;90313.56;;;25.16;43.45
10366;BME280;5229;41.820;23.490;2022-07-22T05:18:56;90318.47;;;25.24;43.39
10366;BME280;5229;41.820;23.490;2022-07-22T05:21:24;90318.81;;;25.37;43.00
10366;BME280;5229;41.820;23.490;2022-07-22T05:23:51;90310.84;;;25.48;42.71
10366;BME280;5229;41.820;23.490;2022-07-22T05:26:18;90307.75;;;25.63;42.42
10366;BME280;5229;41.820;23.490;2022-07-22T05:28:45;90305.41;;;25.76;41.50
10366;BME280;5229;41.820;23.490;2022-07-22T05:31:11;90309.47;;;25.94;41.59
10366;BME280;5229;41.820;23.490;2022-07-22T05:33:38;90313.56;;;26.16;41.69
10366;BME280;5229;41.820;23.490;2022-07-22T05:36:06;90318.34;;;26.35;41.53
10366;BME280;5229;41.820;23.490;2022-07-22T05:38:36;90318.19;;;26.56;40.58
10366;BME280;5229;41.820;23.490;2022-07-22T05:41:03;90315.03;;;26.75;40.40
10366;BME280;5229;41.820;23.490;2022-07-22T05:43:30;90319.44;;;26.92;40.60
10366;BME280;5229;41.820;23.490;2022-07-22T05:45:57;90317.03;;;27.08;40.84
10366;BME280;5229;41.820;23.490;2022-07-22T05:48:24;90319.56;;;27.22;40.61
10366;BME280;5229;41.820;23.490;2022-07-22T05:50:51;90319.78;;;27.38;40.36
10366;BME280;5229;41.820;23.490;2022-07-22T05:53:17;90317.31;;;27.54;40.33
10366;BME280;5229;41.820;23.490;2022-07-22T05:55:45;90317.09;;;27.72;39.77
10366;BME280;5229;41.820;23.490;2022-07-22T05:58:12;90322.69;;;27.84;39.95
10366;BME280;5229;41.820;23.490;2022-07-22T06:00:39;90326.38;;;27.94;39.85
10366;BME280;5229;41.820;23.490;2022-07-22T06:03:07;90322.47;;;28.02;39.61
10366;BME280;5229;41.820;23.490;2022-07-22T06:05:34;90319.72;;;28.09;39.28
10366;BME280;5229;41.820;23.490;2022-07-22T06:08:02;90319.56;;;28.20;39.31
10366;BME280;5229;41.820;23.490;2022-07-22T06:10:29;90313.25;;;28.33;39.19
10366;BME280;5229;41.820;23.490;2022-07-22T06:12:57;90308.88;;;28.50;39.43
10366;BME280;5229;41.820;23.490;2022-07-22T06:15:24;90319.66;;;28.66;39.31
10366;BME280;5229;41.820;23.490;2022-07-22T06:17:51;90311.78;;;28.82;38.66
10366;BME280;5229;41.820;23.490;2022-07-22T06:20:18;90314.56;;;28.98;38.64
10366;BME280;5229;41.820;23.490;2022-07-22T06:22:45;90316.69;;;29.10;38.92
10366;BME280;5229;41.820;23.490;2022-07-22T06:25:11;90311.56;;;29.19;38.65
10366;BME280;5229;41.820;23.490;2022-07-22T06:27:38;90311.78;;;29.28;38.37
10366;BME280;5229;41.820;23.490;2022-07-22T06:30:08;90318.94;;;29.34;38.27
10366;BME280;5229;41.820;23.490;2022-07-22T06:32:35;90321.88;;;29.40;38.10
10366;BME280;5229;41.820;23.490;2022-07-22T06:35:02;90325.19;;;29.47;37.77
10366;BME280;5229;41.820;23.490;2022-07-22T06:37:29;90326.16;;;29.57;37.45
10366;BME280;5229;41.820;23.490;2022-07-22T06:39:56;90323.97;;;29.71;36.91
10366;BME280;5229;41.820;23.490;2022-07-22T06:42:23;90326.09;;;29.80;37.19
10366;BME280;5229;41.820;23.490;2022-07-22T06:44:50;90319.78;;;29.90;36.63
10366;BME280;5229;41.820;23.490;2022-07-22T06:47:19;90324.13;;;30.03;36.88
10366;BME280;5229;41.820;23.490;2022-07-22T06:49:45;90317.72;;;30.17;36.69
10366;BME280;5229;41.820;23.490;2022-07-22T06:52:12;90326.63;;;30.30;36.48
10366;BME280;5229;41.820;23.490;2022-07-22T06:54:39;90321.66;;;30.48;35.13
10366;BME280;5229;41.820;23.490;2022-07-22T06:57:06;90324.25;;;30.67;34.48
10366;BME280;5229;41.820;23.490;2022-07-22T06:59:33;90314.56;;;30.90;34.29
10366;BME280;5229;41.820;23.490;2022-07-22T07:01:59;90316.44;;;30.93;33.13
10366;BME280;5229;41.820;23.490;2022-07-22T07:04:28;90315.75;;;31.05;33.10
10366;BME280;5229;41.820;23.490;2022-07-22T07:06:55;90314.56;;;31.22;32.71
10366;BME280;5229;41.820;23.490;2022-07-22T07:09:21;90320.78;;;31.35;31.58
10366;BME280;5229;41.820;23.490;2022-07-22T07:11:48;90316.47;;;31.21;31.95
10366;BME280;5229;41.820;23.490;2022-07-22T07:14:15;90320.69;;;31.22;32.02
10366;BME280;5229;41.820;23.490;2022-07-22T07:16:42;90324.00;;;31.42;32.02
10366;BME280;5229;41.820;23.490;2022-07-22T07:19:10;90329.47;;;31.67;31.34
10366;BME280;5229;41.820;23.490;2022-07-22T07:21:38;90326.59;;;31.90;30.97
10366;BME280;5229;41.820;23.490;2022-07-22T07:24:05;90325.66;;;32.09;30.76
10366;BME280;5229;41.820;23.490;2022-07-22T07:26:32;90327.00;;;32.30;30.20
10366;BME280;5229;41.820;23.490;2022-07-22T07:28:59;90321.88;;;32.48;30.20
10366;BME280;5229;41.820;23.490;2022-07-22T07:31:26;90324.56;;;32.60;29.81
10366;BME280;5229;41.820;23.490;2022-07-22T07:33:52;90329.94;;;32.73;29.97
10366;BME280;5229;41.820;23.490;2022-07-22T07:36:20;90329.41;;;32.90;29.42
10366;BME280;5229;41.820;23.490;2022-07-22T07:38:49;90322.75;;;32.95;29.44
10366;BME280;5229;41.820;23.490;2022-07-22T07:41:16;90333.81;;;33.09;29.45
10366;BME280;5229;41.820;23.490;2022-07-22T07:43:43;90328.22;;;33.17;28.98
10366;BME280;5229;41.820;23.490;2022-07-22T07:46:10;90331.63;;;33.30;29.33
10366;BME280;5229;41.820;23.490;2022-07-22T07:48:37;90333.00;;;33.47;29.09
10366;BME280;5229;41.820;23.490;2022-07-22T07:51:04;90334.25;;;33.55;29.02
10366;BME280;5229;41.820;23.490;2022-07-22T07:53:31;90333.28;;;33.61;28.72
10366;BME280;5229;41.820;23.490;2022-07-22T07:56:00;90338.09;;;33.66;28.10
10366;BME280;5229;41.820;23.490;2022-07-22T07:58:27;90340.38;;;33.68;28.04
10366;BME280;5229;41.820;23.490;2022-07-22T08:00:53;90346.06;;;33.70;28.20
10366;BME280;5229;41.820;23.490;2022-07-22T08:03:20;90344.13;;;33.70;28.58
10366;BME280;5229;41.820;23.490;2022-07-22T08:05:47;90349.41;;;33.74;28.15
10366;BME280;5229;41.820;23.490;2022-07-22T08:08:14;90345.59;;;33.84;28.80
10366;BME280;5229;41.820;23.490;2022-07-22T08:10:41;90349.66;;;33.88;28.22
10366;BME280;5229;41.820;23.490;2022-07-22T08:13:10;90344.63;;;33.90;28.14
10366;BME280;5229;41.820;23.490;2022-07-22T08:15:37;90338.53;;;33.99;28.07
10366;BME280;5229;41.820;23.490;2022-07-22T08:18:04;90342.63;;;34.03;28.31
10366;BME280;5229;41.820;23.490;2022-07-22T08:20:31;90342.03;;;33.87;27.79
10366;BME280;5229;41.820;23.490;2022-07-22T08:22:58;90336.13;;;33.79;27.89
10366;BME280;5229;41.820;23.490;2022-07-22T08:25:24;90334.59;;;33.91;27.99
10366;BME280;5229;41.820;23.490;2022-07-22T08:27:51;90333.78;;;34.03;27.48
10366;BME280;5229;41.820;23.490;2022-07-22T08:30:19;90334.16;;;34.14;27.83
10366;BME280;5229;41.820;23.490;2022-07-22T08:32:48;90335.13;;;34.29;27.61
10366;BME280;5229;41.820;23.490;2022-07-22T08:35:15;90345.00;;;34.44;27.14
10366;BME280;5229;41.820;23.490;2022-07-22T08:37:44;90347.16;;;34.58;26.51
10366;BME280;5229;41.820;23.490;2022-07-22T08:40:14;90336.38;;;34.89;26.22
10366;BME280;5229;41.820;23.490;2022-07-22T08:42:43;90338.22;;;35.31;25.51
10366;BME280;5229;41.820;23.490;2022-07-22T08:45:11;90344.44;;;36.04;24.85
10366;BME280;5229;41.820;23.490;2022-07-22T08:47:39;90336.66;;;37.25;23.40
10366;BME280;5229;41.820;23.490;2022-07-22T08:50:06;90352.84;;;38.96;21.99
10366;BME280;5229;41.820;23.490;2022-07-22T08:52:33;90355.06;;;40.61;19.51
10366;BME280;5229;41.820;23.490;2022-07-22T08:55:02;90344.03;;;42.05;18.76
10366;BME280;5229;41.820;23.490;2022-07-22T08:57:30;90346.31;;;43.32;17.86
10366;BME280;5229;41.820;23.490;2022-07-22T08:59:59;90358.53;;;44.48;16.96
10366;BME280;5229;41.820;23.490;2022-07-22T09:02:27;90359.13;;;45.52;15.97
10366;BME280;5229;41.820;23.490;2022-07-22T09:04:58;90359.19;;;46.48;14.98
10366;BME280;5229;41.820;23.490;2022-07-22T09:07:27;90367.72;;;47.19;14.11
10366;BME280;5229;41.820;23.490;2022-07-22T09:09:54;90365.78;;;47.64;14.12
10366;BME280;5229;41.820;23.490;2022-07-22T09:12:21;90365.38;;;48.31;12.80
10366;BME280;5229;41.820;23.490;2022-07-22T09:14:50;90372.75;;;48.88;12.81
10366;BME280;5229;41.820;23.490;2022-07-22T09:17:25;90367.72;;;49.46;12.51
10366;BME280;5229;41.820;23.490;2022-07-22T09:19:53;90374.34;;;49.84;12.28
10366;BME280;5229;41.820;23.490;2022-07-22T09:22:38;90377.34;;;50.14;12.17
10366;BME280;5229;41.820;23.490;2022-07-22T09:25:27;90369.47;;;50.46;11.72
10366;BME280;5229;41.820;23.490;2022-07-22T09:27:56;90365.97;;;50.81;11.14
10366;BME280;5229;41.820;23.490;2022-07-22T09:30:36;90374.44;;;51.11;10.98
10366;BME280;5229;41.820;23.490;2022-07-22T09:33:04;90357.53;;;51.37;10.65
10366;BME280;5229;41.820;23.490;2022-07-22T09:35:32;90359.63;;;51.67;10.72
10366;BME280;5229;41.820;23.490;2022-07-22T09:38:01;90366.69;;;51.98;10.24
10366;BME280;5229;41.820;23.490;2022-07-22T09:40:30;90364.47;;;52.19;9.95
10366;BME280;5229;41.820;23.490;2022-07-22T09:42:58;90367.44;;;52.14;10.20
10366;BME280;5229;41.820;23.490;2022-07-22T09:45:27;90364.28;;;51.94;9.92
10366;BME280;5229;41.820;23.490;2022-07-22T09:47:55;90361.34;;;51.92;10.17
10366;BME280;5229;41.820;23.490;2022-07-22T09:50:25;90359.28;;;52.00;9.49
10366;BME280;5229;41.820;23.490;2022-07-22T09:52:54;90358.91;;;52.12;9.59
10366;BME280;5229;41.820;23.490;2022-07-22T09:55:25;90350.41;;;52.32;10.16
10366;BME280;5229;41.820;23.490;2022-07-22T09:57:52;90346.91;;;52.32;10.13
10366;BME280;5229;41.820;23.490;2022-07-22T10:00:20;90344.13;;;52.17;9.60
10366;BME280;5229;41.820;23.490;2022-07-22T10:02:49;90342.69;;;52.08;9.89
10366;BME280;5229;41.820;23.490;2022-07-22T10:05:18;90352.81;;;52.05;9.55
10366;BME280;5229;41.820;23.490;2022-07-22T10:07:47;90352.81;;;51.90;10.01
10366;BME280;5229;41.820;23.490;2022-07-22T10:10:16;90347.84;;;51.81;9.24
10366;BME280;5229;41.820;23.490;2022-07-22T10:12:48;90349.31;;;51.67;10.20
10366;BME280;5229;41.820;23.490;2022-07-22T10:15:15;90350.03;;;51.60;9.44
10366;BME280;5229;41.820;23.490;2022-07-22T10:17:44;90348.19;;;51.70;9.32
10366;BME280;5229;41.820;23.490;2022-07-22T10:20:12;90340.09;;;51.95;9.58
10366;BME280;5229;41.820;23.490;2022-07-22T10:22:56;90337.69;;;52.07;9.19
10366;BME280;5229;41.820;23.490;2022-07-22T10:25:24;90341.00;;;51.97;8.89
10366;BME280;5229;41.820;23.490;2022-07-22T10:27:56;90339.72;;;51.76;9.51
10366;BME280;5229;41.820;23.490;2022-07-22T10:30:24;90327.91;;;51.60;9.63
10366;BME280;5229;41.820;23.490;2022-07-22T10:33:03;90327.03;;;51.22;9.60
10366;BME280;5229;41.820;23.490;2022-07-22T10:35:30;90327.53;;;50.98;9.99
10366;BME280;5229;41.820;23.490;2022-07-22T10:38:01;90328.34;;;50.78;10.15
10366;BME280;5229;41.820;23.490;2022-07-22T10:40:30;90323.09;;;49.96;10.05
10366;BME280;5229;41.820;23.490;2022-07-22T10:43:05;90327.03;;;48.33;11.11
10366;BME280;5229;41.820;23.490;2022-07-22T10:45:33;90316.81;;;46.81;12.32
10366;BME280;5229;41.820;23.490;2022-07-22T10:48:03;90304.28;;;45.52;13.03
10366;BME280;5229;41.820;23.490;2022-07-22T10:50:48;90302.34;;;44.31;13.73
10366;BME280;5229;41.820;23.490;2022-07-22T10:53:19;90293.66;;;43.31;14.64
10366;BME280;5229;41.820;23.490;2022-07-22T10:55:59;90296.53;;;42.39;15.52
10366;BME280;5229;41.820;23.490;2022-07-22T10:58:51;90293.97;;;41.55;15.48
10366;BME280;5229;41.820;23.490;2022-07-22T11:01:20;90292.00;;;40.88;15.91
10366;BME280;5229;41.820;23.490;2022-07-22T11:03:48;90289.44;;;40.28;16.69
10366;BME280;5229;41.820;23.490;2022-07-22T11:06:17;90289.88;;;39.81;17.00
10366;BME280;5229;41.820;23.490;2022-07-22T11:08:47;90288.09;;;39.38;17.19
10366;BME280;5229;41.820;23.490;2022-07-22T11:11:15;90284.81;;;38.99;18.12
10366;BME280;5229;41.820;23.490;2022-07-22T11:13:44;90291.84;;;38.62;18.47
10366;BME280;5229;41.820;23.490;2022-07-22T11:16:19;90286.00;;;38.26;19.10
10366;BME280;5229;41.820;23.490;2022-07-22T11:18:52;90282.69;;;37.92;18.94
10366;BME280;5229;41.820;23.490;2022-07-22T11:21:20;90279.91;;;37.63;20.05
10366;BME280;5229;41.820;23.490;2022-07-22T11:23:49;90271.31;;;37.41;20.27
10366;BME280;5229;41.820;23.490;2022-07-22T11:26:18;90263.47;;;37.20;19.99
10366;BME280;5229;41.820;23.490;2022-07-22T11:28:47;90272.88;;;37.01;20.54
10366;BME280;5229;41.820;23.490;2022-07-22T11:31:16;90273.13;;;36.79;20.38
10366;BME280;5229;41.820;23.490;2022-07-22T11:33:43;90267.47;;;36.59;20.70
10366;BME280;5229;41.820;23.490;2022-07-22T11:36:10;90268.75;;;36.40;21.08
10366;BME280;5229;41.820;23.490;2022-07-22T11:38:45;90269.03;;;36.24;21.53
10366;BME280;5229;41.820;23.490;2022-07-22T11:41:13;90263.41;;;36.04;21.05
10366;BME280;5229;41.820;23.490;2022-07-22T11:43:42;90268.06;;;35.77;20.88
10366;BME280;5229;41.820;23.490;2022-07-22T11:46:11;90270.31;;;35.51;21.79
10366;BME280;5229;41.820;23.490;2022-07-22T11:48:38;90269.09;;;35.34;21.97
10366;BME280;5229;41.820;23.490;2022-07-22T11:51:06;90266.63;;;35.18;22.15
10366;BME280;5229;41.820;23.490;2022-07-22T11:53:33;90264.22;;;35.11;22.71
10366;BME280;5229;41.820;23.490;2022-07-22T11:56:01;90261.84;;;35.04;22.66
10366;BME280;5229;41.820;23.490;2022-07-22T11:58:39;90269.56;;;34.93;22.57
10366;BME280;5229;41.820;23.490;2022-07-22T12:01:06;90261.78;;;34.86;22.67
10366;BME280;5229;41.820;23.490;2022-07-22T12:03:36;90262.03;;;34.79;22.67
10366;BME280;5229;41.820;23.490;2022-07-22T12:06:05;90260.50;;;34.69;23.35
10366;BME280;5229;41.820;23.490;2022-07-22T12:08:33;90250.91;;;34.59;23.00
10366;BME280;5229;41.820;23.490;2022-07-22T12:11:01;90252.06;;;34.49;23.10
10366;BME280;5229;41.820;23.490;2022-07-22T12:13:29;90257.72;;;34.42;22.87
10366;BME280;5229;41.820;23.490;2022-07-22T12:15:56;90257.63;;;34.33;23.43
10366;BME280;5229;41.820;23.490;2022-07-22T12:18:24;90249.69;;;34.29;23.59
10366;BME280;5229;41.820;23.490;2022-07-22T12:20:54;90246.94;;;34.20;23.79
10366;BME280;5229;41.820;23.490;2022-07-22T12:23:23;90246.59;;;34.09;23.97
10366;BME280;5229;41.820;23.490;2022-07-22T12:25:53;90244.75;;;33.97;24.14
10366;BME280;5229;41.820;23.490;2022-07-22T12:28:20;90244.69;;;33.88;24.17
10366;BME280;5229;41.820;23.490;2022-07-22T12:30:47;90242.97;;;33.82;24.12
10366;BME280;5229;41.820;23.490;2022-07-22T12:33:16;90234.09;;;33.72;24.26
10366;BME280;5229;41.820;23.490;2022-07-22T12:35:44;90243.16;;;33.66;24.72
10366;BME280;5229;41.820;23.490;2022-07-22T12:38:25;90245.22;;;33.62;24.53
10366;BME280;5229;41.820;23.490;2022-07-22T12:40:52;90237.28;;;33.58;24.86
10366;BME280;5229;41.820;23.490;2022-07-22T12:43:23;90239.78;;;33.53;24.80
10366;BME280;5229;41.820;23.490;2022-07-22T12:45:51;90232.06;;;33.42;24.90
10366;BME280;5229;41.820;23.490;2022-07-22T12:48:18;90236.06;;;33.38;25.03
10366;BME280;5229;41.820;23.490;2022-07-22T12:50:54;90235.41;;;33.34;25.35
10366;BME280;5229;41.820;23.490;2022-07-22T12:53:21;90237.81;;;33.32;25.17
10366;BME280;5229;41.820;23.490;2022-07-22T12:55:51;90233.28;;;33.29;25.09
10366;BME280;5229;41.820;23.490;2022-07-22T12:58:20;90236.22;;;33.22;24.93
10366;BME280;5229;41.820;23.490;2022-07-22T13:00:49;90235.47;;;33.21;25.32
10366;BME280;5229;41.820;23.490;2022-07-22T13:03:16;90232.78;;;33.21;25.48
10366;BME280;5229;41.820;23.490;2022-07-22T13:05:44;90223.00;;;33.14;24.68